sensor_id;sensor_type;location;lat;lon;timestamp;pressure;altitude;pressure_sealevel;temperature;humidity
41222;BME280;26952;42.884;23.918;2023-01-16T00:01:44;95672.00;;;1.47;100.00
41222;BME280;26952;42.884;23.918;2023-01-16T00:04:09;95652.78;;;1.48;100.00
41222;BME280;26952;42.884;23.918;2023-01-16T00:06:35;95664.09;;;1.37;100.00
41222;BME280;26952;42.884;23.918;2023-01-16T00:09:02;95647.97;;;1.32;100.00
41222;BME280;26952;42.884;23.918;2023-01-16T00:11:27;95656.06;;;1.29;100.00
41222;BME280;26952;42.884;23.918;2023-01-16T00:13:53;95663.38;;;1.35;100.00
41222;BME280;26952;42.884;23.918;2023-01-16T00:16:18;95667.06;;;1.22;100.00
41222;BME280;26952;42.884;23.918;2023-01-16T00:18:46;95668.16;;;1.19;100.00
41222;BME280;26952;42.884;23.918;2023-01-16T00:21:11;95669.31;;;1.15;100.00
41222;BME280;26952;42.884;23.918;2023-01-16T00:23:36;95689.94;;;1.29;100.00
41222;BME280;26952;42.884;23.918;2023-01-16T00:26:06;95668.50;;;1.26;100.00
41222;BME280;26952;42.884;23.918;2023-01-16T00:28:33;95668.84;;;1.32;100.00
41222;BME280;26952;42.884;23.918;2023-01-16T00:30:59;95669.31;;;1.15;100.00
41222;BME280;26952;42.884;23.918;2023-01-16T00:33:24;95685.31;;;1.11;100.00
41222;BME280;26952;42.884;23.918;2023-01-16T00:35:51;95668.03;;;1.10;100.00
41222;BME280;26952;42.884;23.918;2023-01-16T00:38:16;95640.31;;;1.09;100.00
41222;BME280;26952;42.884;23.918;2023-01-16T00:40:41;95661.25;;;1.18;100.00
41222;BME280;26952;42.884;23.918;2023-01-16T00:43:07;95657.22;;;1.25;100.00
41222;BME280;26952;42.884;23.918;2023-01-16T00:45:32;95665.97;;;1.35;100.00
41222;BME280;26952;42.884;23.918;2023-01-16T00:47:57;95647.53;;;1.27;100.00
41222;BME280;26952;42.884;23.918;2023-01-16T00:50:24;95656.53;;;1.34;100.00
41222;BME280;26952;42.884;23.918;2023-01-16T00:52:49;95656.63;;;1.44;100.00
41222;BME280;26952;42.884;23.918;2023-01-16T00:55:15;95656.94;;;1.51;100.00
41222;BME280;26952;42.884;23.918;2023-01-16T00:57:40;95647.81;;;1.45;100.00
41222;BME280;26952;42.884;23.918;2023-01-16T01:00:06;95648.66;;;1.46;100.00
41222;BME280;26952;42.884;23.918;2023-01-16T01:02:32;95624.78;;;1.29;100.00
41222;BME280;26952;42.884;23.918;2023-01-16T01:04:58;95643.25;;;1.37;100.00
41222;BME280;26952;42.884;23.918;2023-01-16T01:07:23;95628.34;;;1.17;100.00
41222;BME280;26952;42.884;23.918;2023-01-16T01:09:48;95626.94;;;1.13;100.00
41222;BME280;26952;42.884;23.918;2023-01-16T01:12:14;95625.97;;;1.14;100.00
41222;BME280;26952;42.884;23.918;2023-01-16T01:14:39;95620.78;;;1.03;100.00
41222;BME280;26952;42.884;23.918;2023-01-16T01:17:05;95628.34;;;1.17;100.00
41222;BME280;26952;42.884;23.918;2023-01-16T01:19:30;95613.91;;;1.02;100.00
41222;BME280;26952;42.884;23.918;2023-01-16T01:21:55;95605.19;;;0.92;100.00
41222;BME280;26952;42.884;23.918;2023-01-16T01:24:21;95617.22;;;1.04;100.00
41222;BME280;26952;42.884;23.918;2023-01-16T01:26:46;95613.81;;;0.93;100.00
41222;BME280;26952;42.884;23.918;2023-01-16T01:29:12;95600.91;;;0.91;100.00
41222;BME280;26952;42.884;23.918;2023-01-16T01:31:37;95618.06;;;1.05;100.00
41222;BME280;26952;42.884;23.918;2023-01-16T01:34:03;95616.53;;;0.91;100.00
41222;BME280;26952;42.884;23.918;2023-01-16T01:36:28;95616.53;;;0.91;100.00
41222;BME280;26952;42.884;23.918;2023-01-16T01:38:53;95606.25;;;0.79;100.00
41222;BME280;26952;42.884;23.918;2023-01-16T01:41:19;95593.13;;;0.69;100.00
41222;BME280;26952;42.884;23.918;2023-01-16T01:46:28;95608.25;;;0.86;100.00
41222;BME280;26952;42.884;23.918;2023-01-16T01:49:02;95611.91;;;0.95;100.00
41222;BME280;26952;42.884;23.918;2023-01-16T01:51:33;95597.94;;;0.85;100.00
41222;BME280;26952;42.884;23.918;2023-01-16T01:54:24;95611.78;;;1.07;100.00
41222;BME280;26952;42.884;23.918;2023-01-16T01:56:56;95585.97;;;1.04;100.00
41222;BME280;26952;42.884;23.918;2023-01-16T01:59:28;95605.63;;;0.97;100.00
41222;BME280;26952;42.884;23.918;2023-01-16T02:01:55;95601.41;;;0.85;100.00
41222;BME280;26952;42.884;23.918;2023-01-16T02:04:31;95582.19;;;0.86;100.00
41222;BME280;26952;42.884;23.918;2023-01-16T02:07:00;95587.16;;;0.89;100.00
41222;BME280;26952;42.884;23.918;2023-01-16T02:09:27;95580.31;;;0.88;100.00
41222;BME280;26952;42.884;23.918;2023-01-16T02:11:56;95586.00;;;0.82;100.00
41222;BME280;26952;42.884;23.918;2023-01-16T02:14:23;95567.06;;;0.80;100.00
41222;BME280;26952;42.884;23.918;2023-01-16T02:16:55;95573.94;;;0.92;100.00
41222;BME280;26952;42.884;23.918;2023-01-16T02:19:45;95571.44;;;0.80;100.00
41222;BME280;26952;42.884;23.918;2023-01-16T02:33:08;95549.56;;;0.49;100.00
41222;BME280;26952;42.884;23.918;2023-01-16T02:38:33;95570.63;;;0.57;100.00
41222;BME280;26952;42.884;23.918;2023-01-16T02:46:45;95561.06;;;0.58;100.00
41222;BME280;26952;42.884;23.918;2023-01-16T02:52:28;95547.91;;;0.59;100.00
41222;BME280;26952;42.884;23.918;2023-01-16T02:57:49;95541.97;;;0.68;100.00
41222;BME280;26952;42.884;23.918;2023-01-16T03:00:16;95522.34;;;0.64;100.00
41222;BME280;26952;42.884;23.918;2023-01-16T03:02:44;95533.69;;;0.63;100.00
41222;BME280;26952;42.884;23.918;2023-01-16T03:05:11;95531.34;;;0.71;100.00
41222;BME280;26952;42.884;23.918;2023-01-16T03:10:50;95524.72;;;0.67;100.00
41222;BME280;26952;42.884;23.918;2023-01-16T03:19:24;95519.00;;;0.73;100.00
41222;BME280;26952;42.884;23.918;2023-01-16T03:28:20;95503.59;;;0.92;100.00
41222;BME280;26952;42.884;23.918;2023-01-16T03:31:05;95497.78;;;0.89;100.00
41222;BME280;26952;42.884;23.918;2023-01-16T03:33:49;95476.41;;;0.74;100.00
41222;BME280;26952;42.884;23.918;2023-01-16T03:36:34;95488.91;;;0.91;100.00
41222;BME280;26952;42.884;23.918;2023-01-16T03:39:07;95480.94;;;0.93;100.00
41222;BME280;26952;42.884;23.918;2023-01-16T03:41:34;95473.97;;;0.93;100.00
41222;BME280;26952;42.884;23.918;2023-01-16T03:44:08;95474.22;;;0.90;100.00
41222;BME280;26952;42.884;23.918;2023-01-16T03:46:42;95468.19;;;0.90;100.00
41222;BME280;26952;42.884;23.918;2023-01-16T03:49:13;95455.41;;;0.87;100.00
41222;BME280;26952;42.884;23.918;2023-01-16T03:51:45;95453.72;;;0.97;100.00
41222;BME280;26952;42.884;23.918;2023-01-16T03:59:21;95452.06;;;0.64;100.00
41222;BME280;26952;42.884;23.918;2023-01-16T04:01:56;95443.16;;;0.78;100.00
41222;BME280;26952;42.884;23.918;2023-01-16T04:07:37;95443.63;;;0.72;100.00
41222;BME280;26952;42.884;23.918;2023-01-16T04:10:07;95458.19;;;0.74;100.00
41222;BME280;26952;42.884;23.918;2023-01-16T04:12:40;95440.03;;;0.84;100.00
41222;BME280;26952;42.884;23.918;2023-01-16T04:15:09;95443.44;;;0.84;100.00
41222;BME280;26952;42.884;23.918;2023-01-16T04:17:36;95434.16;;;0.71;100.00
41222;BME280;26952;42.884;23.918;2023-01-16T04:20:03;95422.38;;;0.56;100.00
41222;BME280;26952;42.884;23.918;2023-01-16T04:22:29;95407.28;;;0.70;100.00
41222;BME280;26952;42.884;23.918;2023-01-16T04:24:57;95422.84;;;0.81;100.00
41222;BME280;26952;42.884;23.918;2023-01-16T04:27:24;95428.19;;;0.80;100.00
41222;BME280;26952;42.884;23.918;2023-01-16T04:29:49;95421.22;;;0.80;100.00
41222;BME280;26952;42.884;23.918;2023-01-16T04:32:15;95427.75;;;0.75;100.00
41222;BME280;26952;42.884;23.918;2023-01-16T04:34:41;95424.13;;;0.66;100.00
41222;BME280;26952;42.884;23.918;2023-01-16T04:37:07;95421.72;;;0.74;100.00
41222;BME280;26952;42.884;23.918;2023-01-16T04:39:32;95402.63;;;0.53;100.00
41222;BME280;26952;42.884;23.918;2023-01-16T04:41:58;95410.66;;;0.61;100.00
41222;BME280;26952;42.884;23.918;2023-01-16T04:44:24;95413.13;;;0.63;100.00
41222;BME280;26952;42.884;23.918;2023-01-16T04:46:49;95406.91;;;0.75;100.00
41222;BME280;26952;42.884;23.918;2023-01-16T04:49:15;95417.50;;;0.62;100.00
41222;BME280;26952;42.884;23.918;2023-01-16T04:51:41;95399.13;;;0.64;100.00
41222;BME280;26952;42.884;23.918;2023-01-16T04:54:07;95397.84;;;0.69;100.00
41222;BME280;26952;42.884;23.918;2023-01-16T04:56:34;95406.69;;;0.78;100.00
41222;BME280;26952;42.884;23.918;2023-01-16T04:59:01;95409.50;;;0.86;100.00
41222;BME280;26952;42.884;23.918;2023-01-16T05:01:26;95404.03;;;0.89;100.00
41222;BME280;26952;42.884;23.918;2023-01-16T05:03:52;95404.56;;;0.72;100.00
41222;BME280;26952;42.884;23.918;2023-01-16T05:06:17;95411.63;;;0.81;100.00
41222;BME280;26952;42.884;23.918;2023-01-16T05:08:43;95387.22;;;0.82;100.00
41222;BME280;26952;42.884;23.918;2023-01-16T05:11:08;95404.81;;;0.89;100.00
41222;BME280;26952;42.884;23.918;2023-01-16T05:13:34;95407.22;;;0.92;100.00
41222;BME280;26952;42.884;23.918;2023-01-16T05:15:59;95404.09;;;0.98;100.00
41222;BME280;26952;42.884;23.918;2023-01-16T05:18:25;95388.66;;;1.06;100.00
41222;BME280;26952;42.884;23.918;2023-01-16T05:20:50;95395.97;;;1.12;100.00
41222;BME280;26952;42.884;23.918;2023-01-16T05:23:16;95394.50;;;0.99;100.00
41222;BME280;26952;42.884;23.918;2023-01-16T05:25:42;95387.38;;;1.01;100.00
41222;BME280;26952;42.884;23.918;2023-01-16T05:28:07;95378.22;;;0.86;100.00
41222;BME280;26952;42.884;23.918;2023-01-16T05:30:33;95381.91;;;0.83;100.00
41222;BME280;26952;42.884;23.918;2023-01-16T05:32:58;95370.50;;;0.84;100.00
41222;BME280;26952;42.884;23.918;2023-01-16T05:35:24;95357.47;;;0.95;100.00
41222;BME280;26952;42.884;23.918;2023-01-16T05:37:49;95340.22;;;1.04;100.00
41222;BME280;26952;42.884;23.918;2023-01-16T05:40:15;95346.25;;;1.04;100.00
41222;BME280;26952;42.884;23.918;2023-01-16T05:42:44;95363.03;;;1.11;100.00
41222;BME280;26952;42.884;23.918;2023-01-16T05:45:10;95343.72;;;1.14;100.00
41222;BME280;26952;42.884;23.918;2023-01-16T05:47:36;95354.00;;;1.15;100.00
41222;BME280;26952;42.884;23.918;2023-01-16T05:50:01;95323.78;;;1.03;100.00
41222;BME280;26952;42.884;23.918;2023-01-16T05:52:27;95329.63;;;1.16;100.00
41222;BME280;26952;42.884;23.918;2023-01-16T05:54:53;95321.97;;;1.24;100.00
41222;BME280;26952;42.884;23.918;2023-01-16T05:57:19;95308.72;;;1.07;100.00
41222;BME280;26952;42.884;23.918;2023-01-16T05:59:49;95293.75;;;1.09;100.00
41222;BME280;26952;42.884;23.918;2023-01-16T06:02:14;95302.06;;;0.93;100.00
41222;BME280;26952;42.884;23.918;2023-01-16T06:04:40;95305.09;;;0.98;100.00
41222;BME280;26952;42.884;23.918;2023-01-16T06:07:06;95295.13;;;1.03;100.00
41222;BME280;26952;42.884;23.918;2023-01-16T06:09:31;95300.16;;;0.95;100.00
41222;BME280;26952;42.884;23.918;2023-01-16T06:11:56;95318.56;;;1.03;100.00
41222;BME280;26952;42.884;23.918;2023-01-16T06:14:22;95313.22;;;1.05;100.00
41222;BME280;26952;42.884;23.918;2023-01-16T06:16:47;95317.59;;;1.04;100.00
41222;BME280;26952;42.884;23.918;2023-01-16T06:19:12;95311.44;;;1.05;100.00
41222;BME280;26952;42.884;23.918;2023-01-16T06:21:38;95313.19;;;1.25;100.00
41222;BME280;26952;42.884;23.918;2023-01-16T06:24:04;95302.81;;;1.35;100.00
41222;BME280;26952;42.884;23.918;2023-01-16T06:26:29;95284.88;;;1.41;100.00
41222;BME280;26952;42.884;23.918;2023-01-16T06:28:55;95300.72;;;1.69;100.00
41222;BME280;26952;42.884;23.918;2023-01-16T06:31:22;95298.81;;;1.71;100.00
41222;BME280;26952;42.884;23.918;2023-01-16T06:33:47;95303.69;;;1.85;100.00
41222;BME280;26952;42.884;23.918;2023-01-16T06:36:12;95308.41;;;2.10;100.00
41222;BME280;26952;42.884;23.918;2023-01-16T06:38:38;95305.53;;;2.22;100.00
41222;BME280;26952;42.884;23.918;2023-01-16T06:41:04;95325.06;;;2.37;100.00
41222;BME280;26952;42.884;23.918;2023-01-16T06:43:29;95319.56;;;2.31;100.00
41222;BME280;26952;42.884;23.918;2023-01-16T06:45:54;95337.03;;;2.40;100.00
41222;BME280;26952;42.884;23.918;2023-01-16T06:48:20;95339.38;;;2.43;100.00
41222;BME280;26952;42.884;23.918;2023-01-16T06:50:46;95321.50;;;2.48;100.00
41222;BME280;26952;42.884;23.918;2023-01-16T06:53:12;95294.81;;;2.63;100.00
41222;BME280;26952;42.884;23.918;2023-01-16T06:55:38;95317.53;;;2.82;100.00
41222;BME280;26952;42.884;23.918;2023-01-16T06:58:04;95317.09;;;2.87;100.00
41222;BME280;26952;42.884;23.918;2023-01-16T07:00:30;95307.56;;;2.95;100.00
41222;BME280;26952;42.884;23.918;2023-01-16T07:02:56;95323.91;;;3.16;100.00
41222;BME280;26952;42.884;23.918;2023-01-16T07:05:24;95310.41;;;3.30;100.00
41222;BME280;26952;42.884;23.918;2023-01-16T07:07:50;95334.22;;;3.27;100.00
41222;BME280;26952;42.884;23.918;2023-01-16T07:10:15;95297.75;;;3.26;100.00
41222;BME280;26952;42.884;23.918;2023-01-16T07:12:41;95318.00;;;3.60;100.00
41222;BME280;26952;42.884;23.918;2023-01-16T07:15:07;95336.38;;;3.78;100.00
41222;BME280;26952;42.884;23.918;2023-01-16T07:17:51;95335.78;;;3.93;100.00
41222;BME280;26952;42.884;23.918;2023-01-16T07:20:36;95348.06;;;4.10;100.00
41222;BME280;26952;42.884;23.918;2023-01-16T07:23:22;95339.97;;;4.31;100.00
41222;BME280;26952;42.884;23.918;2023-01-16T07:25:49;95347.56;;;4.52;100.00
41222;BME280;26952;42.884;23.918;2023-01-16T07:28:16;95349.09;;;4.72;100.00
41222;BME280;26952;42.884;23.918;2023-01-16T07:30:43;95352.00;;;4.86;100.00
41222;BME280;26952;42.884;23.918;2023-01-16T07:33:09;95340.72;;;5.11;100.00
41222;BME280;26952;42.884;23.918;2023-01-16T07:35:35;95331.19;;;5.28;100.00
41222;BME280;26952;42.884;23.918;2023-01-16T07:38:00;95329.34;;;5.46;100.00
41222;BME280;26952;42.884;23.918;2023-01-16T07:40:26;95296.09;;;5.54;100.00
41222;BME280;26952;42.884;23.918;2023-01-16T07:42:51;95289.31;;;5.78;100.00
41222;BME280;26952;42.884;23.918;2023-01-16T07:45:17;95292.88;;;5.94;100.00
41222;BME280;26952;42.884;23.918;2023-01-16T07:47:42;95289.31;;;6.11;100.00
41222;BME280;26952;42.884;23.918;2023-01-16T07:50:08;95300.22;;;6.32;100.00
41222;BME280;26952;42.884;23.918;2023-01-16T07:52:34;95306.81;;;6.44;100.00
41222;BME280;26952;42.884;23.918;2023-01-16T07:54:59;95307.50;;;6.46;91.94
41222;BME280;26952;42.884;23.918;2023-01-16T07:57:25;95306.66;;;5.88;93.17
41222;BME280;26952;42.884;23.918;2023-01-16T07:59:50;95322.13;;;5.99;94.91
41222;BME280;26952;42.884;23.918;2023-01-16T08:02:16;95313.44;;;6.07;92.46
41222;BME280;26952;42.884;23.918;2023-01-16T08:04:41;95314.91;;;6.01;96.35
41222;BME280;26952;42.884;23.918;2023-01-16T08:07:07;95323.38;;;6.29;96.67
41222;BME280;26952;42.884;23.918;2023-01-16T08:09:33;95318.00;;;6.38;97.26
41222;BME280;26952;42.884;23.918;2023-01-16T08:11:58;95324.22;;;6.45;96.47
41222;BME280;26952;42.884;23.918;2023-01-16T08:14:24;95321.00;;;6.59;91.17
41222;BME280;26952;42.884;23.918;2023-01-16T08:16:49;95320.69;;;6.70;92.59
41222;BME280;26952;42.884;23.918;2023-01-16T08:19:15;95312.97;;;6.85;92.64
41222;BME280;26952;42.884;23.918;2023-01-16T08:21:40;95303.78;;;6.97;85.83
41222;BME280;26952;42.884;23.918;2023-01-16T08:24:06;95298.66;;;6.95;84.44
41222;BME280;26952;42.884;23.918;2023-01-16T08:26:32;95317.91;;;6.96;84.47
41222;BME280;26952;42.884;23.918;2023-01-16T08:28:58;95312.47;;;7.05;77.89
41222;BME280;26952;42.884;23.918;2023-01-16T08:31:25;95319.69;;;6.87;80.02
41222;BME280;26952;42.884;23.918;2023-01-16T08:33:50;95328.94;;;6.91;78.13
41222;BME280;26952;42.884;23.918;2023-01-16T08:36:16;95295.69;;;6.82;78.00
41222;BME280;26952;42.884;23.918;2023-01-16T08:38:45;95302.47;;;7.09;74.76
41222;BME280;26952;42.884;23.918;2023-01-16T08:41:10;95314.47;;;7.12;74.51
41222;BME280;26952;42.884;23.918;2023-01-16T08:43:55;95286.00;;;6.99;74.17
41222;BME280;26952;42.884;23.918;2023-01-16T08:46:39;95302.78;;;6.74;72.64
41222;BME280;26952;42.884;23.918;2023-01-16T08:49:23;95300.47;;;6.79;72.87
41222;BME280;26952;42.884;23.918;2023-01-16T08:52:08;95315.78;;;7.07;74.89
41222;BME280;26952;42.884;23.918;2023-01-16T08:54:33;95287.16;;;7.13;74.27
41222;BME280;26952;42.884;23.918;2023-01-16T08:56:58;95285.34;;;7.21;75.60
41222;BME280;26952;42.884;23.918;2023-01-16T08:59:24;95287.81;;;7.31;73.19
41222;BME280;26952;42.884;23.918;2023-01-16T09:01:49;95281.84;;;7.45;70.24
41222;BME280;26952;42.884;23.918;2023-01-16T09:04:15;95291.03;;;7.65;70.38
41222;BME280;26952;42.884;23.918;2023-01-16T09:06:40;95308.47;;;7.66;68.38
41222;BME280;26952;42.884;23.918;2023-01-16T09:09:07;95301.06;;;7.69;71.57
41222;BME280;26952;42.884;23.918;2023-01-16T09:11:33;95296.94;;;7.83;71.57
41222;BME280;26952;42.884;23.918;2023-01-16T09:14:18;95278.09;;;7.94;71.67
41222;BME280;26952;42.884;23.918;2023-01-16T09:16:43;95250.97;;;8.16;71.77
41222;BME280;26952;42.884;23.918;2023-01-16T09:19:09;95260.00;;;8.60;71.31
41222;BME280;26952;42.884;23.918;2023-01-16T09:21:34;95236.19;;;8.68;67.21
41222;BME280;26952;42.884;23.918;2023-01-16T09:24:00;95238.41;;;8.79;67.86
41222;BME280;26952;42.884;23.918;2023-01-16T09:26:25;95234.06;;;8.86;64.00
41222;BME280;26952;42.884;23.918;2023-01-16T09:28:51;95235.34;;;8.90;65.47
41222;BME280;26952;42.884;23.918;2023-01-16T09:31:16;95232.25;;;8.64;65.91
41222;BME280;26952;42.884;23.918;2023-01-16T09:33:44;95184.44;;;8.14;67.57
41222;BME280;26952;42.884;23.918;2023-01-16T09:36:09;95232.38;;;8.48;69.34
41222;BME280;26952;42.884;23.918;2023-01-16T09:38:35;95213.66;;;8.35;70.50
41222;BME280;26952;42.884;23.918;2023-01-16T09:41:01;95238.34;;;8.65;65.38
41222;BME280;26952;42.884;23.918;2023-01-16T09:43:33;95222.72;;;9.00;69.17
41222;BME280;26952;42.884;23.918;2023-01-16T09:46:17;95210.47;;;9.07;64.56
41222;BME280;26952;42.884;23.918;2023-01-16T09:51:22;95218.09;;;9.54;65.41
41222;BME280;26952;42.884;23.918;2023-01-16T09:53:58;95207.88;;;9.65;61.97
41222;BME280;26952;42.884;23.918;2023-01-16T09:56:46;95197.91;;;9.09;60.64
41222;BME280;26952;42.884;23.918;2023-01-16T09:59:41;95192.69;;;9.38;65.11
41222;BME280;26952;42.884;23.918;2023-01-16T10:02:21;95198.25;;;9.58;60.88
41222;BME280;26952;42.884;23.918;2023-01-16T10:04:48;95201.47;;;9.16;62.65
41222;BME280;26952;42.884;23.918;2023-01-16T10:12:33;95180.91;;;9.26;65.60
41222;BME280;26952;42.884;23.918;2023-01-16T10:24:01;95157.47;;;9.81;65.24
41222;BME280;26952;42.884;23.918;2023-01-16T10:26:29;95139.19;;;9.65;62.78
41222;BME280;26952;42.884;23.918;2023-01-16T10:29:15;95146.00;;;9.74;63.62
41222;BME280;26952;42.884;23.918;2023-01-16T10:31:52;95144.00;;;9.76;65.11
41222;BME280;26952;42.884;23.918;2023-01-16T10:34:28;95124.28;;;9.94;64.80
41222;BME280;26952;42.884;23.918;2023-01-16T10:36:56;95129.19;;;9.97;60.54
41222;BME280;26952;42.884;23.918;2023-01-16T10:39:30;95122.09;;;9.82;61.50
41222;BME280;26952;42.884;23.918;2023-01-16T10:42:09;95113.09;;;9.77;61.96
41222;BME280;26952;42.884;23.918;2023-01-16T10:45:00;95117.03;;;9.66;61.54
41222;BME280;26952;42.884;23.918;2023-01-16T10:47:53;95097.06;;;9.28;62.51
41222;BME280;26952;42.884;23.918;2023-01-16T10:50:37;95098.53;;;9.66;64.70
41222;BME280;26952;42.884;23.918;2023-01-16T10:53:05;95104.88;;;9.87;62.15
41222;BME280;26952;42.884;23.918;2023-01-16T10:55:33;95109.84;;;10.11;59.63
41222;BME280;26952;42.884;23.918;2023-01-16T10:58:06;95122.56;;;10.43;61.81
41222;BME280;26952;42.884;23.918;2023-01-16T11:00:40;95071.44;;;10.36;57.37
41222;BME280;26952;42.884;23.918;2023-01-16T11:05:47;95099.03;;;10.75;56.09
41222;BME280;26952;42.884;23.918;2023-01-16T11:08:15;95095.13;;;10.23;54.90
41222;BME280;26952;42.884;23.918;2023-01-16T11:10:44;95085.69;;;9.63;54.97
41222;BME280;26952;42.884;23.918;2023-01-16T11:13:14;95087.34;;;9.64;57.61
41222;BME280;26952;42.884;23.918;2023-01-16T11:16:21;95093.81;;;9.62;57.43
41222;BME280;26952;42.884;23.918;2023-01-16T11:19:20;95092.25;;;9.67;57.42
41222;BME280;26952;42.884;23.918;2023-01-16T11:21:53;95071.03;;;9.25;57.42
41222;BME280;26952;42.884;23.918;2023-01-16T11:24:22;95077.63;;;9.36;60.00
41222;BME280;26952;42.884;23.918;2023-01-16T11:26:50;95065.28;;;9.22;58.74
41222;BME280;26952;42.884;23.918;2023-01-16T11:29:18;95066.41;;;9.48;59.10
41222;BME280;26952;42.884;23.918;2023-01-16T11:32:06;95063.94;;;9.61;56.73
41222;BME280;26952;42.884;23.918;2023-01-16T11:34:32;95053.00;;;9.50;56.11
41222;BME280;26952;42.884;23.918;2023-01-16T11:37:01;95049.78;;;9.33;57.36
41222;BME280;26952;42.884;23.918;2023-01-16T11:39:30;95050.16;;;9.30;58.24
41222;BME280;26952;42.884;23.918;2023-01-16T11:41:58;95047.19;;;9.04;59.41
41222;BME280;26952;42.884;23.918;2023-01-16T11:44:33;95053.25;;;9.05;60.55
41222;BME280;26952;42.884;23.918;2023-01-16T11:47:26;95042.34;;;9.22;61.91
41222;BME280;26952;42.884;23.918;2023-01-16T11:49:53;95043.31;;;9.36;60.74
41222;BME280;26952;42.884;23.918;2023-01-16T11:52:22;95037.94;;;9.65;58.63
41222;BME280;26952;42.884;23.918;2023-01-16T11:54:58;95031.06;;;9.85;58.88
41222;BME280;26952;42.884;23.918;2023-01-16T12:00:56;95019.53;;;9.36;54.79
41222;BME280;26952;42.884;23.918;2023-01-16T12:14:53;94984.75;;;9.32;57.80
41222;BME280;26952;42.884;23.918;2023-01-16T12:17:27;94988.69;;;9.36;57.35
41222;BME280;26952;42.884;23.918;2023-01-16T12:25:50;94987.44;;;9.74;54.91
41222;BME280;26952;42.884;23.918;2023-01-16T12:28:36;94983.03;;;9.81;56.08
41222;BME280;26952;42.884;23.918;2023-01-16T12:42:12;94971.09;;;10.07;54.50
41222;BME280;26952;42.884;23.918;2023-01-16T12:47:40;94963.78;;;9.88;53.64
41222;BME280;26952;42.884;23.918;2023-01-16T12:59:10;94949.69;;;9.38;57.77
41222;BME280;26952;42.884;23.918;2023-01-16T13:01:40;94958.22;;;9.40;55.33
41222;BME280;26952;42.884;23.918;2023-01-16T13:04:21;94932.59;;;9.55;53.81
41222;BME280;26952;42.884;23.918;2023-01-16T13:06:55;94905.66;;;9.45;55.06
41222;BME280;26952;42.884;23.918;2023-01-16T13:09:36;94904.88;;;9.45;55.37
41222;BME280;26952;42.884;23.918;2023-01-16T13:12:16;94909.59;;;9.49;55.32
41222;BME280;26952;42.884;23.918;2023-01-16T13:15:12;94901.66;;;9.28;55.56
41222;BME280;26952;42.884;23.918;2023-01-16T13:18:21;94890.97;;;9.15;57.67
41222;BME280;26952;42.884;23.918;2023-01-16T13:20:47;94894.66;;;9.21;57.51
41222;BME280;26952;42.884;23.918;2023-01-16T13:23:19;94907.13;;;8.91;58.04
41222;BME280;26952;42.884;23.918;2023-01-16T13:25:47;94893.41;;;8.81;59.07
41222;BME280;26952;42.884;23.918;2023-01-16T13:30:40;94880.94;;;8.90;56.55
41222;BME280;26952;42.884;23.918;2023-01-16T13:33:19;94874.19;;;8.87;57.62
41222;BME280;26952;42.884;23.918;2023-01-16T13:41:06;94862.22;;;8.85;57.52
41222;BME280;26952;42.884;23.918;2023-01-16T13:43:47;94831.56;;;8.69;56.64
41222;BME280;26952;42.884;23.918;2023-01-16T13:46:34;94866.66;;;8.84;58.75
41222;BME280;26952;42.884;23.918;2023-01-16T13:49:02;94846.78;;;8.67;59.16
41222;BME280;26952;42.884;23.918;2023-01-16T13:51:28;94860.09;;;8.59;60.79
41222;BME280;26952;42.884;23.918;2023-01-16T13:53:59;94858.88;;;8.62;61.05
41222;BME280;26952;42.884;23.918;2023-01-16T13:56:28;94862.34;;;8.62;60.71
41222;BME280;26952;42.884;23.918;2023-01-16T13:59:03;94869.72;;;8.52;61.98
41222;BME280;26952;42.884;23.918;2023-01-16T14:06:58;94836.97;;;8.61;62.04
41222;BME280;26952;42.884;23.918;2023-01-16T14:10:15;94827.06;;;8.63;61.45
41222;BME280;26952;42.884;23.918;2023-01-16T14:12:59;94819.88;;;8.57;60.76
41222;BME280;26952;42.884;23.918;2023-01-16T14:15:25;94817.63;;;8.54;65.37
41222;BME280;26952;42.884;23.918;2023-01-16T14:21:04;94827.34;;;8.54;62.43
41222;BME280;26952;42.884;23.918;2023-01-16T14:23:37;94816.81;;;8.39;63.52
41222;BME280;26952;42.884;23.918;2023-01-16T14:27:12;94844.72;;;8.48;61.92
41222;BME280;26952;42.884;23.918;2023-01-16T14:29:29;94840.84;;;8.29;64.04
41222;BME280;26952;42.884;23.918;2023-01-16T14:34:38;94836.34;;;8.01;65.16
41222;BME280;26952;42.884;23.918;2023-01-16T14:37:31;94841.09;;;7.91;67.65
41222;BME280;26952;42.884;23.918;2023-01-16T14:42:44;94827.19;;;7.68;68.84
41222;BME280;26952;42.884;23.918;2023-01-16T14:45:32;94824.53;;;7.68;69.16
41222;BME280;26952;42.884;23.918;2023-01-16T14:50:55;94828.63;;;7.70;69.07
41222;BME280;26952;42.884;23.918;2023-01-16T14:53:42;94783.94;;;7.62;67.35
41222;BME280;26952;42.884;23.918;2023-01-16T14:56:29;94807.28;;;7.65;67.37
41222;BME280;26952;42.884;23.918;2023-01-16T14:59:11;94834.09;;;7.83;68.18
41222;BME280;26952;42.884;23.918;2023-01-16T15:01:46;94835.09;;;7.82;68.60
41222;BME280;26952;42.884;23.918;2023-01-16T15:04:41;94847.59;;;7.66;69.86
41222;BME280;26952;42.884;23.918;2023-01-16T15:07:14;94825.97;;;7.56;69.56
41222;BME280;26952;42.884;23.918;2023-01-16T15:09:42;94825.19;;;7.55;71.40
41222;BME280;26952;42.884;23.918;2023-01-16T15:12:14;94829.97;;;7.52;69.92
41222;BME280;26952;42.884;23.918;2023-01-16T15:14:53;94830.25;;;7.57;70.76
41222;BME280;26952;42.884;23.918;2023-01-16T15:17:21;94818.25;;;7.54;70.62
41222;BME280;26952;42.884;23.918;2023-01-16T15:20:25;94821.22;;;7.37;73.94
41222;BME280;26952;42.884;23.918;2023-01-16T15:23:20;94819.66;;;7.94;65.24
41222;BME280;26952;42.884;23.918;2023-01-16T15:28:18;94826.19;;;7.98;70.00
41222;BME280;26952;42.884;23.918;2023-01-16T15:30:47;94829.63;;;7.84;72.69
41222;BME280;26952;42.884;23.918;2023-01-16T15:33:28;94829.53;;;7.77;70.60
41222;BME280;26952;42.884;23.918;2023-01-16T15:42:16;94820.34;;;7.59;74.32